createdAt,value
2022-07-28T00:00:05.329Z,0.00
2022-07-28T00:01:05.819Z,0.00
2022-07-28T00:02:05.272Z,0.00
2022-07-28T00:03:05.820Z,0.00
2022-07-28T00:04:05.787Z,0.00
2022-07-28T00:05:05.088Z,0.00
2022-07-28T00:06:07.570Z,0.00
2022-07-28T00:07:05.748Z,0.00
2022-07-28T00:08:05.739Z,0.00
2022-07-28T00:09:05.088Z,0.00
2022-07-28T00:10:05.080Z,0.00
2022-07-28T00:11:05.720Z,0.00
2022-07-28T00:12:05.702Z,0.00
2022-07-28T00:13:06.778Z,0.00
2022-07-28T00:14:05.033Z,0.00
2022-07-28T00:15:05.663Z,0.00
2022-07-28T00:16:06.952Z,0.00
2022-07-28T00:17:05.632Z,0.00
2022-07-28T00:18:05.638Z,0.00
2022-07-28T00:19:04.942Z,0.00
2022-07-28T00:20:04.993Z,0.00
2022-07-28T00:21:05.604Z,0.00
2022-07-28T00:22:05.582Z,0.00
2022-07-28T00:23:04.936Z,0.00
2022-07-28T00:24:04.922Z,0.00
2022-07-28T00:25:05.561Z,0.00
2022-07-28T00:26:04.884Z,0.00
2022-07-28T00:27:05.551Z,0.00
2022-07-28T00:28:05.627Z,0.00
2022-07-28T00:29:04.861Z,0.00
2022-07-28T00:30:04.827Z,0.00
2022-07-28T00:31:05.608Z,0.00
2022-07-28T00:32:05.500Z,0.00
2022-07-28T00:33:05.195Z,0.00
2022-07-28T00:34:05.465Z,0.00
2022-07-28T00:35:04.776Z,0.00
2022-07-28T00:36:04.779Z,0.00
2022-07-28T00:37:06.785Z,0.00
2022-07-28T00:38:05.413Z,0.00
2022-07-28T00:39:05.696Z,0.00
2022-07-28T00:40:05.398Z,0.00
2022-07-28T00:41:05.386Z,0.00
2022-07-28T00:42:05.369Z,0.00
2022-07-28T00:43:05.359Z,0.00
2022-07-28T00:44:04.726Z,0.00
2022-07-28T00:45:05.545Z,0.00
2022-07-28T00:46:04.731Z,0.00
2022-07-28T00:47:05.722Z,0.00
2022-07-28T00:48:04.682Z,0.00
2022-07-28T00:49:05.389Z,0.00
2022-07-28T00:50:05.259Z,0.00
2022-07-28T00:51:05.269Z,0.00
2022-07-28T00:52:05.264Z,0.00
2022-07-28T00:53:06.566Z,0.00
2022-07-28T00:54:04.559Z,0.00
2022-07-28T00:55:04.554Z,0.00
2022-07-28T00:56:06.589Z,0.00
2022-07-28T00:57:04.530Z,0.00
2022-07-28T00:58:05.199Z,0.00
2022-07-28T00:59:05.180Z,0.00
2022-07-28T01:00:04.482Z,0.00
2022-07-28T01:01:05.151Z,0.00
2022-07-28T01:02:04.703Z,0.00
2022-07-28T01:03:04.613Z,0.00
2022-07-28T01:04:04.477Z,0.00
2022-07-28T01:05:05.122Z,0.00
2022-07-28T01:06:04.458Z,0.00
2022-07-28T01:07:05.093Z,0.00
2022-07-28T01:08:04.453Z,0.00
2022-07-28T01:09:05.084Z,0.00
2022-07-28T01:10:04.393Z,0.00
2022-07-28T01:11:04.574Z,0.00
2022-07-28T01:12:05.041Z,0.00
2022-07-28T01:13:05.226Z,0.00
2022-07-28T01:14:04.994Z,0.00
2022-07-28T01:15:04.369Z,0.00
2022-07-28T01:16:06.818Z,0.00
2022-07-28T01:17:04.986Z,0.00
2022-07-28T01:18:04.982Z,0.00
2022-07-28T01:19:05.045Z,0.00
2022-07-28T01:20:04.323Z,0.00
2022-07-28T01:21:04.953Z,0.00
2022-07-28T01:22:04.917Z,0.00
2022-07-28T01:23:04.288Z,0.00
2022-07-28T01:24:04.900Z,0.00
2022-07-28T01:25:04.887Z,0.00
2022-07-28T01:26:04.882Z,0.00
2022-07-28T01:27:04.229Z,0.00
2022-07-28T01:28:04.177Z,0.00
2022-07-28T01:29:04.183Z,0.00
2022-07-28T01:30:04.843Z,0.00
2022-07-28T01:31:04.844Z,0.00
2022-07-28T01:32:04.170Z,0.00
2022-07-28T01:33:04.139Z,0.00
2022-07-28T01:34:04.147Z,0.00
2022-07-28T01:35:04.340Z,0.00
2022-07-28T01:36:04.780Z,0.00
2022-07-28T01:37:04.339Z,0.00
2022-07-28T01:38:04.768Z,0.00
2022-07-28T01:39:04.742Z,0.00
2022-07-28T01:40:04.031Z,0.00
2022-07-28T01:41:04.052Z,0.00
2022-07-28T01:42:04.064Z,0.00
2022-07-28T01:43:04.684Z,0.00
2022-07-28T01:44:04.061Z,0.00
2022-07-28T01:45:04.072Z,0.00
2022-07-28T01:46:04.740Z,0.00
2022-07-28T01:47:04.649Z,0.00
2022-07-28T01:48:03.981Z,0.00
2022-07-28T01:49:04.691Z,0.00
2022-07-28T01:50:03.937Z,0.00
2022-07-28T01:51:04.614Z,0.00
2022-07-28T01:52:03.916Z,0.00
2022-07-28T01:53:04.034Z,0.00
2022-07-28T01:54:03.885Z,0.00
2022-07-28T01:55:04.944Z,0.00
2022-07-28T01:56:04.557Z,0.00
2022-07-28T01:57:04.545Z,0.00
2022-07-28T01:58:06.307Z,0.00
2022-07-28T01:59:03.852Z,0.00
2022-07-28T02:00:03.956Z,0.00
2022-07-28T02:01:04.021Z,0.00
2022-07-28T02:02:03.875Z,0.00
2022-07-28T02:03:04.467Z,0.00
2022-07-28T02:04:03.854Z,0.00
2022-07-28T02:05:04.517Z,0.00
2022-07-28T02:06:03.781Z,0.00
2022-07-28T02:07:04.598Z,0.00
2022-07-28T02:08:04.423Z,0.00
2022-07-28T02:09:03.740Z,0.00
2022-07-28T02:10:05.148Z,0.00
2022-07-28T02:11:04.393Z,0.00
2022-07-28T02:12:04.380Z,0.00
2022-07-28T02:13:03.831Z,0.00
2022-07-28T02:14:03.702Z,0.00
2022-07-28T02:15:05.599Z,0.00
2022-07-28T02:16:04.387Z,0.00
2022-07-28T02:17:04.321Z,0.00
2022-07-28T02:18:03.659Z,0.00
2022-07-28T02:19:05.104Z,0.00
2022-07-28T02:20:03.624Z,0.00
2022-07-28T02:21:04.270Z,0.00
2022-07-28T02:22:04.261Z,0.00
2022-07-28T02:23:03.603Z,0.00
2022-07-28T02:24:03.624Z,0.00
2022-07-28T02:25:06.063Z,0.00
2022-07-28T02:26:04.551Z,0.00
2022-07-28T02:27:04.203Z,0.00
2022-07-28T02:28:03.576Z,0.00
2022-07-28T02:29:04.195Z,0.00
2022-07-28T02:30:04.177Z,0.00
2022-07-28T02:31:04.287Z,0.00
2022-07-28T02:32:04.164Z,0.00
2022-07-28T02:33:06.937Z,0.00
2022-07-28T02:34:04.131Z,0.00
2022-07-28T02:35:04.798Z,0.00
2022-07-28T02:36:04.117Z,0.00
2022-07-28T02:37:03.474Z,0.00
2022-07-28T02:38:04.094Z,0.00
2022-07-28T02:39:04.083Z,0.00
2022-07-28T02:40:04.066Z,0.00
2022-07-28T02:41:04.074Z,0.00
2022-07-28T02:42:04.048Z,0.00
2022-07-28T02:43:04.109Z,0.00
2022-07-28T02:44:04.026Z,0.00
2022-07-28T02:45:03.334Z,0.00
2022-07-28T02:46:03.346Z,0.00
2022-07-28T02:47:03.997Z,0.00
2022-07-28T02:48:03.329Z,0.00
2022-07-28T02:49:05.617Z,0.00
2022-07-28T02:50:03.288Z,0.00
2022-07-28T02:51:03.300Z,0.00
2022-07-28T02:52:03.928Z,0.00
2022-07-28T02:53:14.938Z,0.00
2022-07-28T02:54:04.917Z,0.00
2022-07-28T02:55:03.229Z,0.00
2022-07-28T02:56:05.195Z,0.00
2022-07-28T02:57:03.890Z,0.00
2022-07-28T02:58:05.367Z,0.00
2022-07-28T02:59:03.859Z,0.00
2022-07-28T03:00:03.669Z,0.00
2022-07-28T03:01:03.904Z,0.00
2022-07-28T03:02:03.409Z,0.00
2022-07-28T03:03:04.741Z,0.00
2022-07-28T03:04:03.831Z,0.00
2022-07-28T03:05:03.250Z,0.00
2022-07-28T03:06:04.133Z,4.00
2022-07-28T03:07:03.800Z,0.00
2022-07-28T03:08:03.084Z,0.00
2022-07-28T03:09:03.090Z,4.00
2022-07-28T03:10:03.071Z,4.00
2022-07-28T03:11:03.092Z,0.00
2022-07-28T03:12:03.738Z,4.00
2022-07-28T03:13:03.038Z,0.00
2022-07-28T03:14:03.710Z,4.00
2022-07-28T03:15:03.045Z,8.00
2022-07-28T03:16:03.045Z,4.00
2022-07-28T03:17:03.774Z,4.00
2022-07-28T03:18:03.004Z,8.00
2022-07-28T03:19:02.957Z,8.00
2022-07-28T03:20:03.634Z,12.00
2022-07-28T03:21:02.964Z,12.00
2022-07-28T03:22:02.947Z,12.00
2022-07-28T03:23:03.642Z,12.00
2022-07-28T03:24:03.595Z,16.00
2022-07-28T03:25:02.945Z,16.00
2022-07-28T03:26:03.577Z,20.00
2022-07-28T03:27:03.555Z,20.00
2022-07-28T03:28:02.865Z,28.00
2022-07-28T03:29:03.009Z,28.00
2022-07-28T03:30:04.006Z,32.00
2022-07-28T03:31:03.718Z,36.00
2022-07-28T03:32:03.527Z,40.00
2022-07-28T03:33:02.796Z,48.00
2022-07-28T03:34:03.809Z,52.00
2022-07-28T03:35:03.534Z,56.00
2022-07-28T03:36:02.856Z,64.00
2022-07-28T03:37:03.499Z,68.00
2022-07-28T03:38:02.803Z,72.00
2022-07-28T03:39:03.429Z,84.00
2022-07-28T03:40:02.766Z,92.00
2022-07-28T03:41:03.499Z,100.00
2022-07-28T03:42:03.399Z,108.00
2022-07-28T03:43:03.390Z,116.00
2022-07-28T03:44:02.720Z,128.00
2022-07-28T03:45:02.697Z,136.00
2022-07-28T03:46:02.781Z,152.00
2022-07-28T03:47:02.699Z,160.00
2022-07-28T03:48:03.333Z,176.00
2022-07-28T03:49:03.457Z,188.00
2022-07-28T03:50:02.630Z,200.00
2022-07-28T03:51:02.620Z,212.00
2022-07-28T03:52:03.309Z,224.00
2022-07-28T03:53:04.672Z,236.00
2022-07-28T03:54:02.585Z,248.00
2022-07-28T03:55:03.263Z,264.00
2022-07-28T03:56:02.563Z,272.00
2022-07-28T03:57:03.232Z,284.00
2022-07-28T03:58:02.532Z,296.00
2022-07-28T03:59:02.592Z,308.00
2022-07-28T04:00:09.055Z,320.00
2022-07-28T04:01:05.092Z,332.00
2022-07-28T04:02:02.547Z,344.00
2022-07-28T04:03:03.221Z,364.00
2022-07-28T04:04:02.523Z,376.00
2022-07-28T04:05:02.533Z,392.00
2022-07-28T04:06:02.479Z,408.00
2022-07-28T04:07:03.128Z,420.00
2022-07-28T04:08:03.128Z,440.00
2022-07-28T04:09:03.115Z,452.00
2022-07-28T04:10:02.459Z,468.00
2022-07-28T04:11:02.567Z,480.00
2022-07-28T04:12:02.449Z,492.00
2022-07-28T04:13:04.837Z,504.00
2022-07-28T04:14:02.385Z,520.00
2022-07-28T04:15:02.407Z,536.00
2022-07-28T04:16:02.388Z,552.00
2022-07-28T04:17:03.085Z,568.00
2022-07-28T04:18:02.323Z,584.00
2022-07-28T04:19:03.001Z,600.00
2022-07-28T04:20:02.335Z,624.00
2022-07-28T04:21:03.323Z,648.00
2022-07-28T04:22:02.326Z,672.00
2022-07-28T04:23:04.061Z,700.00
2022-07-28T04:24:02.330Z,732.00
2022-07-28T04:25:02.934Z,772.00
2022-07-28T04:26:02.299Z,812.00
2022-07-28T04:27:02.281Z,844.00
2022-07-28T04:28:02.890Z,884.00
2022-07-28T04:29:03.358Z,936.00
2022-07-28T04:30:02.231Z,976.00
2022-07-28T04:31:02.333Z,988.00
2022-07-28T04:32:02.861Z,964.00
2022-07-28T04:33:02.863Z,952.00
2022-07-28T04:34:02.184Z,980.00
2022-07-28T04:35:02.829Z,1024.00
2022-07-28T04:36:02.339Z,1084.00
2022-07-28T04:37:02.192Z,1160.00
2022-07-28T04:38:02.161Z,1236.00
2022-07-28T04:39:02.245Z,1352.00
2022-07-28T04:40:02.769Z,1368.00
2022-07-28T04:41:02.161Z,1448.00
2022-07-28T04:42:02.746Z,1812.00
2022-07-28T04:43:02.106Z,2008.00
2022-07-28T04:44:02.079Z,2192.00
2022-07-28T04:45:02.085Z,2416.00
2022-07-28T04:46:03.563Z,2500.00
2022-07-28T04:47:02.077Z,2740.00
2022-07-28T04:48:02.059Z,2992.00
2022-07-28T04:49:02.126Z,2896.00
2022-07-28T04:50:02.677Z,2692.00
2022-07-28T04:51:02.636Z,2740.00
2022-07-28T04:52:03.428Z,2800.00
2022-07-28T04:53:02.622Z,2716.00
2022-07-28T04:54:02.015Z,2828.00
2022-07-28T04:55:02.071Z,3116.00
2022-07-28T04:56:02.440Z,2944.00
2022-07-28T04:57:03.705Z,3044.00
2022-07-28T04:58:03.059Z,2996.00
2022-07-28T04:59:02.665Z,2972.00
2022-07-28T05:00:02.109Z,3116.00
2022-07-28T05:01:01.987Z,3116.00
2022-07-28T05:02:02.528Z,3052.00
2022-07-28T05:03:02.529Z,3064.00
2022-07-28T05:04:01.929Z,3068.00
2022-07-28T05:05:01.992Z,3092.00
2022-07-28T05:06:01.868Z,3088.00
2022-07-28T05:07:07.943Z,3084.00
2022-07-28T05:08:04.332Z,3048.00
2022-07-28T05:09:01.798Z,3012.00
2022-07-28T05:10:01.870Z,3188.00
2022-07-28T05:11:01.807Z,3244.00
2022-07-28T05:12:01.752Z,3268.00
2022-07-28T05:13:01.770Z,3300.00
2022-07-28T05:14:02.401Z,3356.00
2022-07-28T05:15:01.764Z,3408.00
2022-07-28T05:16:01.845Z,3544.00
2022-07-28T05:17:02.410Z,3648.00
2022-07-28T05:18:02.361Z,3696.00
2022-07-28T05:19:01.701Z,3728.00
2022-07-28T05:20:03.300Z,3704.00
2022-07-28T05:21:02.632Z,3768.00
2022-07-28T05:22:02.304Z,3904.00
2022-07-28T05:23:01.684Z,3984.00
2022-07-28T05:24:01.685Z,4024.00
2022-07-28T05:25:01.662Z,4264.00
2022-07-28T05:26:01.593Z,4944.00
2022-07-28T05:27:01.625Z,5460.00
2022-07-28T05:28:01.663Z,5216.00
2022-07-28T05:29:02.243Z,4576.00
2022-07-28T05:30:01.615Z,4524.00
2022-07-28T05:31:01.608Z,4552.00
2022-07-28T05:32:07.864Z,4552.00
2022-07-28T05:33:03.189Z,4612.00
2022-07-28T05:34:01.598Z,4648.00
2022-07-28T05:35:02.165Z,4788.00
2022-07-28T05:36:01.571Z,5692.00
2022-07-28T05:37:01.486Z,6260.00
2022-07-28T05:38:01.496Z,6632.00
2022-07-28T05:39:01.518Z,6108.00
2022-07-28T05:40:02.108Z,6044.00
2022-07-28T05:41:01.458Z,5692.00
2022-07-28T05:42:02.331Z,5152.00
2022-07-28T05:43:02.088Z,5528.00
2022-07-28T05:44:01.469Z,6128.00
2022-07-28T05:45:01.428Z,8156.00
2022-07-28T05:46:02.124Z,8704.00
2022-07-28T05:47:02.048Z,8744.00
2022-07-28T05:48:01.361Z,8748.00
2022-07-28T05:49:01.441Z,7788.00
2022-07-28T05:50:01.371Z,6680.00
2022-07-28T05:51:02.037Z,7736.00
2022-07-28T05:52:01.361Z,9336.00
2022-07-28T05:53:01.984Z,14848.00
2022-07-28T05:54:01.342Z,15168.00
2022-07-28T05:55:01.302Z,16000.00
2022-07-28T05:56:01.986Z,16384.00
2022-07-28T05:57:01.424Z,17568.00
2022-07-28T05:58:01.922Z,18848.00
2022-07-28T05:59:01.933Z,18976.00
2022-07-28T06:00:01.224Z,17792.00
2022-07-28T06:01:01.608Z,16544.00
2022-07-28T06:02:01.924Z,17056.00
2022-07-28T06:03:01.868Z,17184.00
2022-07-28T06:04:26.146Z,16704.00
2022-07-28T06:05:02.198Z,18592.00
2022-07-28T06:06:14.973Z,22688.00
2022-07-28T06:07:02.197Z,24800.00
2022-07-28T06:08:01.824Z,23392.00
2022-07-28T06:09:01.814Z,20832.00
2022-07-28T06:10:01.118Z,20768.00
2022-07-28T06:11:01.108Z,19520.00
2022-07-28T06:12:01.100Z,19872.00
2022-07-28T06:13:01.750Z,23616.00
2022-07-28T06:14:01.738Z,20896.00
2022-07-28T06:15:01.127Z,19904.00
2022-07-28T06:16:01.142Z,19648.00
2022-07-28T06:17:02.081Z,19424.00
2022-07-28T06:18:01.712Z,18912.00
2022-07-28T06:19:01.041Z,26848.00
2022-07-28T06:20:01.679Z,29216.00
2022-07-28T06:21:01.799Z,30464.00
2022-07-28T06:22:01.023Z,26528.00
2022-07-28T06:23:01.074Z,23616.00
2022-07-28T06:24:00.983Z,25152.00
2022-07-28T06:25:01.631Z,21088.00
2022-07-28T06:26:01.616Z,18944.00
2022-07-28T06:27:01.632Z,17920.00
2022-07-28T06:28:01.604Z,12916.00
2022-07-28T06:29:01.590Z,8808.00
2022-07-28T06:30:00.925Z,14112.00
2022-07-28T06:31:00.923Z,15648.00
2022-07-28T06:32:01.611Z,15488.00
2022-07-28T06:33:00.913Z,13036.00
2022-07-28T06:34:00.854Z,15744.00
2022-07-28T06:35:00.844Z,15424.00
2022-07-28T06:36:01.523Z,13860.00
2022-07-28T06:37:01.511Z,13376.00
2022-07-28T06:38:01.487Z,12480.00
2022-07-28T06:39:01.465Z,12224.00
2022-07-28T06:40:01.465Z,11356.00
2022-07-28T06:41:00.786Z,9692.00
2022-07-28T06:42:01.442Z,11636.00
2022-07-28T06:43:01.431Z,11564.00
2022-07-28T06:44:01.642Z,15196.00
2022-07-28T06:45:00.779Z,19616.00
2022-07-28T06:46:00.748Z,21920.00
2022-07-28T06:47:00.855Z,25504.00
2022-07-28T06:48:00.730Z,25440.00
2022-07-28T06:49:01.420Z,24000.00
2022-07-28T06:50:01.360Z,22304.00
2022-07-28T06:51:01.330Z,22848.00
2022-07-28T06:52:00.702Z,21824.00
2022-07-28T06:53:01.545Z,17920.00
2022-07-28T06:54:01.312Z,19104.00
2022-07-28T06:55:00.672Z,18208.00
2022-07-28T06:56:01.293Z,17664.00
2022-07-28T06:57:01.303Z,20384.00
2022-07-28T06:58:01.274Z,25056.00
2022-07-28T06:59:00.632Z,36032.00
2022-07-28T07:00:01.248Z,34816.00
2022-07-28T07:01:01.273Z,28704.00
2022-07-28T07:02:00.541Z,33472.00
2022-07-28T07:03:01.704Z,28320.00
2022-07-28T07:04:00.694Z,32288.00
2022-07-28T07:05:00.496Z,27456.00
2022-07-28T07:06:01.187Z,30688.00
2022-07-28T07:07:01.168Z,36704.00
2022-07-28T07:08:01.157Z,38752.00
2022-07-28T07:09:00.567Z,39616.00
2022-07-28T07:10:01.134Z,39232.00
2022-07-28T07:11:01.138Z,35712.00
2022-07-28T07:12:01.117Z,32992.00
2022-07-28T07:13:00.858Z,36992.00
2022-07-28T07:14:02.701Z,41024.00
2022-07-28T07:15:00.482Z,39648.00
2022-07-28T07:16:01.135Z,36576.00
2022-07-28T07:17:00.412Z,41600.00
2022-07-28T07:18:01.051Z,42016.00
2022-07-28T07:19:01.044Z,40832.00
2022-07-28T07:20:02.014Z,36384.00
2022-07-28T07:21:00.360Z,34656.00
2022-07-28T07:22:00.368Z,36672.00
2022-07-28T07:23:01.000Z,22368.00
2022-07-28T07:24:00.983Z,15444.00
2022-07-28T07:25:00.301Z,22432.00
2022-07-28T07:26:00.403Z,25824.00
2022-07-28T07:27:00.296Z,31712.00
2022-07-28T07:28:00.963Z,31360.00
2022-07-28T07:29:00.936Z,29280.00
2022-07-28T07:30:00.924Z,29152.00
2022-07-28T07:31:00.289Z,33600.00
2022-07-28T07:32:00.339Z,35168.00
2022-07-28T07:33:00.916Z,34976.00
2022-07-28T07:34:00.884Z,36224.00
2022-07-28T07:35:00.866Z,40288.00
2022-07-28T07:36:00.181Z,40736.00
2022-07-28T07:37:00.927Z,41344.00
2022-07-28T07:38:00.202Z,39008.00
2022-07-28T07:39:00.176Z,41280.00
2022-07-28T07:40:00.832Z,45600.00
2022-07-28T07:41:00.138Z,44512.00
2022-07-28T07:42:00.799Z,39168.00
2022-07-28T07:43:00.130Z,13744.00
2022-07-28T07:44:00.181Z,17312.00
2022-07-28T07:45:00.078Z,18208.00
2022-07-28T07:46:00.749Z,17472.00
2022-07-28T07:47:00.790Z,16156.00
2022-07-28T07:48:00.062Z,33920.00
2022-07-28T07:49:00.785Z,49088.00
2022-07-28T07:50:03.708Z,44096.00
2022-07-28T07:51:00.064Z,46112.00
2022-07-28T07:52:00.005Z,40768.00
2022-07-28T07:53:00.672Z,38016.00
2022-07-28T07:53:59.982Z,37120.00
2022-07-28T07:55:00.664Z,37920.00
2022-07-28T07:56:00.002Z,39008.00
2022-07-28T07:57:00.636Z,45376.00
2022-07-28T07:57:59.951Z,43168.00
2022-07-28T07:58:59.937Z,43232.00
2022-07-28T08:00:00.617Z,41920.00
2022-07-28T08:01:00.584Z,44512.00
2022-07-28T08:02:00.004Z,44064.00
2022-07-28T08:03:00.574Z,45376.00
2022-07-28T08:04:00.573Z,46336.00
2022-07-28T08:04:59.923Z,45120.00
2022-07-28T08:05:59.860Z,36416.00
2022-07-28T08:06:59.856Z,42112.00
2022-07-28T08:08:00.586Z,44960.00
2022-07-28T08:09:00.507Z,48768.00
2022-07-28T08:09:59.820Z,44736.00
2022-07-28T08:10:59.798Z,47392.00
2022-07-28T08:12:00.478Z,42784.00
2022-07-28T08:12:59.796Z,48128.00
2022-07-28T08:13:59.944Z,49856.00
2022-07-28T08:15:00.466Z,52192.00
2022-07-28T08:16:00.476Z,52512.00
2022-07-28T08:16:59.783Z,51648.00
2022-07-28T08:18:00.429Z,48064.00
2022-07-28T08:18:59.736Z,48384.00
2022-07-28T08:19:59.783Z,42016.00
2022-07-28T08:21:00.371Z,56096.00
2022-07-28T08:22:00.367Z,57952.00
2022-07-28T08:23:00.364Z,58432.00
2022-07-28T08:24:01.599Z,57888.00
2022-07-28T08:24:59.656Z,59200.00
2022-07-28T08:26:00.315Z,62176.00
2022-07-28T08:27:00.239Z,31360.00
2022-07-28T08:27:59.653Z,60064.00
2022-07-28T08:28:59.633Z,62976.00
2022-07-28T08:30:00.292Z,64192.00
2022-07-28T08:30:59.651Z,58208.00
2022-07-28T08:31:59.620Z,51520.00
2022-07-28T08:33:00.245Z,56192.00
2022-07-28T08:33:59.587Z,48928.00
2022-07-28T08:35:31.210Z,49728.00
2022-07-28T08:36:02.501Z,31456.00
2022-07-28T08:37:00.197Z,14808.00
2022-07-28T08:37:59.562Z,11164.00
2022-07-28T08:39:00.177Z,9960.00
2022-07-28T08:40:00.787Z,9468.00
2022-07-28T08:41:00.183Z,8724.00
2022-07-28T08:42:00.153Z,8888.00
2022-07-28T08:43:00.143Z,8548.00
2022-07-28T08:44:00.121Z,7988.00
2022-07-28T08:44:59.429Z,7840.00
2022-07-28T08:45:59.430Z,8216.00
2022-07-28T08:47:00.144Z,7928.00
2022-07-28T08:48:08.119Z,7288.00
2022-07-28T08:49:02.389Z,6544.00
2022-07-28T08:49:59.387Z,7208.00
2022-07-28T08:50:59.363Z,7752.00
2022-07-28T08:51:59.373Z,8000.00
2022-07-28T08:53:00.075Z,6704.00
2022-07-28T08:54:00.109Z,7400.00
2022-07-28T08:54:59.634Z,7156.00
2022-07-28T08:55:59.985Z,7216.00
2022-07-28T08:57:02.796Z,7052.00
2022-07-28T08:58:00.001Z,7384.00
2022-07-28T08:58:59.290Z,7244.00
2022-07-28T08:59:59.967Z,6944.00
2022-07-28T09:00:59.936Z,6904.00
2022-07-28T09:01:59.287Z,6680.00
2022-07-28T09:02:59.306Z,6760.00
2022-07-28T09:03:59.276Z,6552.00
2022-07-28T09:04:59.229Z,6692.00
2022-07-28T09:05:59.887Z,6424.00
2022-07-28T09:06:59.858Z,6380.00
2022-07-28T09:07:59.868Z,6144.00
2022-07-28T09:08:59.863Z,5904.00
2022-07-28T09:10:02.504Z,6176.00
2022-07-28T09:10:59.829Z,5936.00
2022-07-28T09:11:59.829Z,5660.00
2022-07-28T09:12:59.809Z,5612.00
2022-07-28T09:13:59.130Z,5608.00
2022-07-28T09:14:59.141Z,5480.00
2022-07-28T09:15:59.142Z,5492.00
2022-07-28T09:16:59.146Z,5508.00
2022-07-28T09:17:59.752Z,5472.00
2022-07-28T09:18:59.124Z,5508.00
2022-07-28T09:19:59.082Z,5468.00
2022-07-28T09:20:59.754Z,5416.00
2022-07-28T09:21:59.083Z,5396.00
2022-07-28T09:22:59.704Z,5280.00
2022-07-28T09:23:59.066Z,5072.00
2022-07-28T09:24:59.673Z,4904.00
2022-07-28T09:25:59.681Z,4752.00
2022-07-28T09:26:59.668Z,4656.00
2022-07-28T09:27:59.663Z,4848.00
2022-07-28T09:28:59.645Z,4940.00
2022-07-28T09:29:58.927Z,5128.00
2022-07-28T09:30:59.790Z,5228.00
2022-07-28T09:32:00.484Z,5232.00
2022-07-28T09:32:58.929Z,5372.00
2022-07-28T09:33:59.594Z,5408.00
2022-07-28T09:34:58.921Z,5472.00
2022-07-28T09:35:59.564Z,4816.00
2022-07-28T09:36:59.528Z,4468.00
2022-07-28T09:37:58.857Z,4392.00
2022-07-28T09:38:58.838Z,4452.00
2022-07-28T09:39:59.606Z,4904.00
2022-07-28T09:40:59.520Z,5176.00
2022-07-28T09:41:59.528Z,5348.00
2022-07-28T09:42:59.481Z,5252.00
2022-07-28T09:43:58.842Z,4952.00
2022-07-28T09:45:21.291Z,4968.00
2022-07-28T09:45:59.826Z,5076.00
2022-07-28T09:46:59.601Z,5012.00
2022-07-28T09:47:58.916Z,4944.00
2022-07-28T09:48:59.024Z,4952.00
2022-07-28T09:49:59.501Z,4852.00
2022-07-28T09:50:58.706Z,4760.00
2022-07-28T09:51:59.385Z,4856.00
2022-07-28T09:52:59.385Z,5144.00
2022-07-28T09:53:58.720Z,5576.00
2022-07-28T09:54:58.699Z,5212.00
2022-07-28T09:55:59.374Z,5016.00
2022-07-28T09:56:59.335Z,5076.00
2022-07-28T09:57:59.327Z,5012.00
2022-07-28T09:58:58.616Z,5028.00
2022-07-28T09:59:58.637Z,5128.00
2022-07-28T10:00:59.319Z,5120.00
2022-07-28T10:01:59.361Z,4976.00
2022-07-28T10:02:59.349Z,4916.00
2022-07-28T10:04:02.832Z,4968.00
2022-07-28T10:04:59.250Z,4956.00
2022-07-28T10:05:59.246Z,4920.00
2022-07-28T10:06:59.254Z,4928.00
2022-07-28T10:07:59.232Z,4992.00
2022-07-28T10:08:59.224Z,4944.00
2022-07-28T10:09:58.509Z,4692.00
2022-07-28T10:10:59.193Z,5100.00
2022-07-28T10:11:58.494Z,5080.00
2022-07-28T10:12:58.512Z,5040.00
2022-07-28T10:13:59.155Z,4732.00
2022-07-28T10:14:59.170Z,5060.00
2022-07-28T10:15:58.509Z,4756.00
2022-07-28T10:17:04.174Z,3240.00
2022-07-28T10:18:00.120Z,4880.00
2022-07-28T10:18:58.447Z,3956.00
2022-07-28T10:19:59.087Z,5584.00
2022-07-28T10:20:59.083Z,5480.00
2022-07-28T10:21:59.070Z,5372.00
2022-07-28T10:22:59.058Z,5340.00
2022-07-28T10:23:59.061Z,5396.00
2022-07-28T10:24:59.865Z,5036.00
2022-07-28T10:25:59.049Z,5892.00
2022-07-28T10:26:59.016Z,5840.00
2022-07-28T10:27:59.016Z,5780.00
2022-07-28T10:28:59.001Z,5908.00
2022-07-28T10:29:58.342Z,5620.00
2022-07-28T10:30:58.343Z,8112.00
2022-07-28T10:31:58.962Z,6420.00
2022-07-28T10:32:58.951Z,6644.00
2022-07-28T10:33:58.282Z,6796.00
2022-07-28T10:34:58.931Z,6984.00
2022-07-28T10:35:58.288Z,7212.00
2022-07-28T10:36:58.992Z,7584.00
2022-07-28T10:37:58.212Z,8280.00
2022-07-28T10:38:58.893Z,11596.00
2022-07-28T10:39:58.888Z,41120.00
2022-07-28T10:40:58.874Z,72320.00
2022-07-28T10:41:58.853Z,77504.00
2022-07-28T10:42:58.846Z,76576.00
2022-07-28T10:43:58.153Z,83808.00
2022-07-28T10:44:58.827Z,85664.00
2022-07-28T10:46:07.516Z,87328.00
2022-07-28T10:46:59.265Z,87520.00
2022-07-28T10:47:58.807Z,89952.00
2022-07-28T10:48:58.806Z,84160.00
2022-07-28T10:49:58.777Z,4068.00
2022-07-28T10:50:58.078Z,4020.00
2022-07-28T10:52:19.756Z,8808.00
2022-07-28T10:52:59.534Z,4788.00
2022-07-28T10:53:58.822Z,4172.00
2022-07-28T10:54:58.737Z,5468.00
2022-07-28T10:55:58.065Z,6976.00
2022-07-28T10:56:59.022Z,4512.00
2022-07-28T10:58:02.205Z,3720.00
2022-07-28T10:59:04.738Z,3856.00
2022-07-28T11:00:05.334Z,4852.00
2022-07-28T11:01:05.858Z,4572.00
2022-07-28T11:01:59.772Z,3796.00
2022-07-28T11:02:58.068Z,3580.00
2022-07-28T11:03:57.996Z,3572.00
2022-07-28T11:04:58.595Z,3560.00
2022-07-28T11:05:58.601Z,3364.00
2022-07-28T11:06:57.904Z,3316.00
2022-07-28T11:07:58.583Z,3040.00
2022-07-28T11:08:57.893Z,2904.00
2022-07-28T11:09:58.555Z,2832.00
2022-07-28T11:11:07.529Z,2820.00
2022-07-28T11:12:00.828Z,2784.00
2022-07-28T11:12:57.824Z,2716.00
2022-07-28T11:13:57.836Z,2660.00
2022-07-28T11:14:58.513Z,2620.00
2022-07-28T11:16:01.095Z,2584.00
2022-07-28T11:16:58.550Z,2568.00
2022-07-28T11:17:58.460Z,2572.00
2022-07-28T11:18:57.784Z,2552.00
2022-07-28T11:21:00.578Z,2524.00
2022-07-28T11:21:57.798Z,2536.00
2022-07-28T11:22:59.446Z,2520.00
2022-07-28T11:23:57.770Z,2504.00
2022-07-28T11:24:58.561Z,2496.00
2022-07-28T11:25:58.381Z,2496.00
2022-07-28T11:27:01.103Z,2496.00
2022-07-28T11:28:00.652Z,2504.00
2022-07-28T11:28:57.780Z,2484.00
2022-07-28T11:29:58.331Z,2424.00
2022-07-28T11:30:57.767Z,2448.00
2022-07-28T11:31:57.648Z,2460.00
2022-07-28T11:32:57.984Z,2500.00
2022-07-28T11:33:57.653Z,2496.00
2022-07-28T11:34:57.608Z,2504.00
2022-07-28T11:35:58.294Z,2540.00
2022-07-28T11:36:58.270Z,2540.00
2022-07-28T11:37:57.577Z,2576.00
2022-07-28T11:38:59.043Z,2580.00
2022-07-28T11:39:58.233Z,2556.00
2022-07-28T11:40:58.217Z,2560.00
2022-07-28T11:41:58.215Z,2560.00
2022-07-28T11:42:59.467Z,2524.00
2022-07-28T11:43:57.735Z,2516.00
2022-07-28T11:44:57.584Z,2496.00
2022-07-28T11:45:58.186Z,2536.00
2022-07-28T11:46:58.156Z,2676.00
2022-07-28T11:47:58.137Z,2684.00
2022-07-28T11:48:57.529Z,2572.00
2022-07-28T11:49:57.455Z,2560.00
2022-07-28T11:50:58.148Z,2540.00
2022-07-28T11:51:57.448Z,2532.00
2022-07-28T11:52:57.398Z,2524.00
2022-07-28T11:53:58.070Z,2556.00
2022-07-28T11:54:58.377Z,2580.00
2022-07-28T11:56:02.946Z,2568.00
2022-07-28T11:57:00.345Z,2532.00
2022-07-28T11:57:57.371Z,2416.00
2022-07-28T11:58:58.030Z,2548.00
2022-07-28T11:59:57.401Z,2720.00
2022-07-28T12:00:58.023Z,2704.00
2022-07-28T12:01:57.408Z,2508.00
2022-07-28T12:02:57.354Z,2288.00
2022-07-28T12:03:59.212Z,2380.00
2022-07-28T12:04:57.319Z,2496.00
2022-07-28T12:05:57.278Z,2496.00
2022-07-28T12:06:57.924Z,2524.00
2022-07-28T12:07:57.923Z,2544.00
2022-07-28T12:08:57.305Z,2508.00
2022-07-28T12:09:57.905Z,2448.00
2022-07-28T12:10:57.310Z,2520.00
2022-07-28T12:11:57.213Z,2676.00
2022-07-28T12:12:57.864Z,2836.00
2022-07-28T12:13:57.216Z,2864.00
2022-07-28T12:14:57.184Z,2792.00
2022-07-28T12:15:57.297Z,2656.00
2022-07-28T12:16:57.244Z,2596.00
2022-07-28T12:17:57.136Z,2604.00
2022-07-28T12:18:57.810Z,2744.00
2022-07-28T12:19:57.098Z,3000.00
2022-07-28T12:21:01.705Z,2928.00
2022-07-28T12:21:58.674Z,2908.00